sensor_id;sensor_type;location;lat;lon;timestamp;temperature;humidity
41178;DHT22;26912;54.292;18.574;2022-07-29T00:02:19;25.20;53.00
41178;DHT22;26912;54.292;18.574;2022-07-29T00:04:45;25.20;53.00
41178;DHT22;26912;54.292;18.574;2022-07-29T00:07:11;25.20;53.10
41178;DHT22;26912;54.292;18.574;2022-07-29T00:09:38;25.20;53.30
41178;DHT22;26912;54.292;18.574;2022-07-29T00:12:05;25.20;53.20
41178;DHT22;26912;54.292;18.574;2022-07-29T00:14:31;25.10;52.80
41178;DHT22;26912;54.292;18.574;2022-07-29T00:16:58;24.50;53.50
41178;DHT22;26912;54.292;18.574;2022-07-29T00:19:24;23.90;54.60
41178;DHT22;26912;54.292;18.574;2022-07-29T00:21:50;23.70;55.30
41178;DHT22;26912;54.292;18.574;2022-07-29T00:24:17;23.80;55.40
41178;DHT22;26912;54.292;18.574;2022-07-29T00:26:43;24.00;55.50
41178;DHT22;26912;54.292;18.574;2022-07-29T00:29:09;24.20;55.20
41178;DHT22;26912;54.292;18.574;2022-07-29T00:31:36;24.40;54.90
41178;DHT22;26912;54.292;18.574;2022-07-29T00:34:02;24.60;54.60
41178;DHT22;26912;54.292;18.574;2022-07-29T00:36:29;24.80;54.40
41178;DHT22;26912;54.292;18.574;2022-07-29T00:38:55;25.00;53.10
41178;DHT22;26912;54.292;18.574;2022-07-29T00:41:22;25.10;52.70
41178;DHT22;26912;54.292;18.574;2022-07-29T00:43:48;25.10;52.50
41178;DHT22;26912;54.292;18.574;2022-07-29T00:46:15;25.20;52.40
41178;DHT22;26912;54.292;18.574;2022-07-29T00:48:41;25.20;52.40
41178;DHT22;26912;54.292;18.574;2022-07-29T00:51:07;25.10;52.50
41178;DHT22;26912;54.292;18.574;2022-07-29T00:53:35;25.00;52.70
41178;DHT22;26912;54.292;18.574;2022-07-29T00:56:02;24.90;53.10
41178;DHT22;26912;54.292;18.574;2022-07-29T00:58:28;25.00;53.30
41178;DHT22;26912;54.292;18.574;2022-07-29T01:00:55;24.90;53.40
41178;DHT22;26912;54.292;18.574;2022-07-29T01:03:21;24.90;53.60
41178;DHT22;26912;54.292;18.574;2022-07-29T01:05:47;24.90;53.80
41178;DHT22;26912;54.292;18.574;2022-07-29T01:08:15;24.80;53.90
41178;DHT22;26912;54.292;18.574;2022-07-29T01:10:43;24.90;54.00
41178;DHT22;26912;54.292;18.574;2022-07-29T01:13:10;24.90;54.00
41178;DHT22;26912;54.292;18.574;2022-07-29T01:15:46;24.90;54.10
41178;DHT22;26912;54.292;18.574;2022-07-29T01:19:03;24.80;54.30
41178;DHT22;26912;54.292;18.574;2022-07-29T01:29:57;24.90;54.10
41178;DHT22;26912;54.292;18.574;2022-07-29T01:32:28;25.10;53.90
41178;DHT22;26912;54.292;18.574;2022-07-29T01:35:19;25.20;53.70
41178;DHT22;26912;54.292;18.574;2022-07-29T01:37:52;25.30;53.70
41178;DHT22;26912;54.292;18.574;2022-07-29T01:40:42;25.30;53.70
41178;DHT22;26912;54.292;18.574;2022-07-29T01:43:14;25.30;53.60
41178;DHT22;26912;54.292;18.574;2022-07-29T01:51:12;25.10;52.20
41178;DHT22;26912;54.292;18.574;2022-07-29T01:54:20;25.00;51.60
41178;DHT22;26912;54.292;18.574;2022-07-29T01:56:51;24.80;52.00
41178;DHT22;26912;54.292;18.574;2022-07-29T01:59:20;24.70;52.40
41178;DHT22;26912;54.292;18.574;2022-07-29T02:01:48;24.70;52.20
41178;DHT22;26912;54.292;18.574;2022-07-29T02:04:16;24.70;52.10
41178;DHT22;26912;54.292;18.574;2022-07-29T02:06:44;24.80;52.50
41178;DHT22;26912;54.292;18.574;2022-07-29T02:09:13;24.90;52.40
41178;DHT22;26912;54.292;18.574;2022-07-29T02:11:46;24.90;52.40
41178;DHT22;26912;54.292;18.574;2022-07-29T02:14:15;24.90;52.50
41178;DHT22;26912;54.292;18.574;2022-07-29T02:16:42;24.90;52.70
41178;DHT22;26912;54.292;18.574;2022-07-29T02:19:09;24.90;53.10
41178;DHT22;26912;54.292;18.574;2022-07-29T02:21:38;25.10;53.30
41178;DHT22;26912;54.292;18.574;2022-07-29T02:24:06;25.20;53.40
41178;DHT22;26912;54.292;18.574;2022-07-29T02:26:35;25.20;53.20
41178;DHT22;26912;54.292;18.574;2022-07-29T02:29:02;25.20;53.30
41178;DHT22;26912;54.292;18.574;2022-07-29T02:31:32;25.30;53.20
41178;DHT22;26912;54.292;18.574;2022-07-29T02:34:05;25.30;53.10
41178;DHT22;26912;54.292;18.574;2022-07-29T02:36:33;25.30;52.30
41178;DHT22;26912;54.292;18.574;2022-07-29T02:39:02;25.20;51.50
41178;DHT22;26912;54.292;18.574;2022-07-29T02:41:33;25.00;51.50
41178;DHT22;26912;54.292;18.574;2022-07-29T02:44:02;25.00;51.40
41178;DHT22;26912;54.292;18.574;2022-07-29T02:46:32;24.90;51.80
41178;DHT22;26912;54.292;18.574;2022-07-29T02:52:27;25.00;52.90
41178;DHT22;26912;54.292;18.574;2022-07-29T02:55:32;25.10;53.20
41178;DHT22;26912;54.292;18.574;2022-07-29T03:00:41;25.40;53.10
41178;DHT22;26912;54.292;18.574;2022-07-29T03:03:12;25.50;52.70
41178;DHT22;26912;54.292;18.574;2022-07-29T03:05:39;25.60;52.50
41178;DHT22;26912;54.292;18.574;2022-07-29T03:08:07;25.60;52.60
41178;DHT22;26912;54.292;18.574;2022-07-29T03:10:39;25.60;52.70
41178;DHT22;26912;54.292;18.574;2022-07-29T03:13:07;25.50;51.90
41178;DHT22;26912;54.292;18.574;2022-07-29T03:15:34;25.60;51.90
41178;DHT22;26912;54.292;18.574;2022-07-29T03:18:01;25.70;52.10
41178;DHT22;26912;54.292;18.574;2022-07-29T03:20:28;25.80;52.30
41178;DHT22;26912;54.292;18.574;2022-07-29T03:22:54;25.70;50.90
41178;DHT22;26912;54.292;18.574;2022-07-29T03:25:21;25.70;50.30
41178;DHT22;26912;54.292;18.574;2022-07-29T03:27:48;25.40;49.80
41178;DHT22;26912;54.292;18.574;2022-07-29T03:30:15;25.40;50.10
41178;DHT22;26912;54.292;18.574;2022-07-29T03:32:42;25.30;50.40
41178;DHT22;26912;54.292;18.574;2022-07-29T03:35:08;25.20;50.30
41178;DHT22;26912;54.292;18.574;2022-07-29T03:37:35;24.90;50.20
41178;DHT22;26912;54.292;18.574;2022-07-29T03:40:06;24.50;50.90
41178;DHT22;26912;54.292;18.574;2022-07-29T03:42:34;23.90;51.70
41178;DHT22;26912;54.292;18.574;2022-07-29T03:45:07;23.40;52.80
41178;DHT22;26912;54.292;18.574;2022-07-29T03:47:39;23.10;53.70
41178;DHT22;26912;54.292;18.574;2022-07-29T03:50:08;23.20;54.30
41178;DHT22;26912;54.292;18.574;2022-07-29T03:52:36;23.40;54.30
41178;DHT22;26912;54.292;18.574;2022-07-29T03:55:04;23.70;54.30
41178;DHT22;26912;54.292;18.574;2022-07-29T03:57:32;23.90;53.90
41178;DHT22;26912;54.292;18.574;2022-07-29T04:00:00;24.10;53.60
41178;DHT22;26912;54.292;18.574;2022-07-29T04:02:31;24.30;53.50
41178;DHT22;26912;54.292;18.574;2022-07-29T04:04:58;24.30;53.30
41178;DHT22;26912;54.292;18.574;2022-07-29T04:07:25;24.10;53.80
41178;DHT22;26912;54.292;18.574;2022-07-29T04:09:51;23.90;54.30
41178;DHT22;26912;54.292;18.574;2022-07-29T04:12:18;23.80;54.90
41178;DHT22;26912;54.292;18.574;2022-07-29T04:14:44;23.80;55.50
41178;DHT22;26912;54.292;18.574;2022-07-29T04:17:10;23.60;56.20
41178;DHT22;26912;54.292;18.574;2022-07-29T04:19:36;23.40;56.90
41178;DHT22;26912;54.292;18.574;2022-07-29T04:22:03;23.20;57.60
41178;DHT22;26912;54.292;18.574;2022-07-29T04:24:29;23.10;58.40
41178;DHT22;26912;54.292;18.574;2022-07-29T04:26:55;23.00;59.10
41178;DHT22;26912;54.292;18.574;2022-07-29T04:29:22;23.20;59.10
41178;DHT22;26912;54.292;18.574;2022-07-29T04:31:48;23.50;58.70
41178;DHT22;26912;54.292;18.574;2022-07-29T04:34:15;23.90;58.00
41178;DHT22;26912;54.292;18.574;2022-07-29T04:36:41;24.00;57.80
41178;DHT22;26912;54.292;18.574;2022-07-29T04:39:07;24.10;57.80
41178;DHT22;26912;54.292;18.574;2022-07-29T04:41:34;24.10;58.00
41178;DHT22;26912;54.292;18.574;2022-07-29T04:44:00;24.30;57.90
41178;DHT22;26912;54.292;18.574;2022-07-29T04:46:31;24.70;57.40
41178;DHT22;26912;54.292;18.574;2022-07-29T04:48:58;24.90;57.10
41178;DHT22;26912;54.292;18.574;2022-07-29T04:51:24;24.80;56.90
41178;DHT22;26912;54.292;18.574;2022-07-29T04:53:50;24.90;57.00
41178;DHT22;26912;54.292;18.574;2022-07-29T04:56:17;25.00;56.80
41178;DHT22;26912;54.292;18.574;2022-07-29T04:58:43;25.30;56.90
41178;DHT22;26912;54.292;18.574;2022-07-29T05:01:10;25.70;56.80
41178;DHT22;26912;54.292;18.574;2022-07-29T05:03:36;26.00;56.00
41178;DHT22;26912;54.292;18.574;2022-07-29T05:06:02;26.10;55.60
41178;DHT22;26912;54.292;18.574;2022-07-29T05:08:29;26.30;55.30
41178;DHT22;26912;54.292;18.574;2022-07-29T05:10:55;26.30;55.00
41178;DHT22;26912;54.292;18.574;2022-07-29T05:13:21;26.50;55.10
41178;DHT22;26912;54.292;18.574;2022-07-29T05:15:48;26.50;54.70
41178;DHT22;26912;54.292;18.574;2022-07-29T05:18:15;26.60;54.60
41178;DHT22;26912;54.292;18.574;2022-07-29T05:20:41;26.60;54.30
41178;DHT22;26912;54.292;18.574;2022-07-29T05:23:08;26.70;54.10
41178;DHT22;26912;54.292;18.574;2022-07-29T05:25:34;26.60;53.90
41178;DHT22;26912;54.292;18.574;2022-07-29T05:28:01;26.60;53.90
41178;DHT22;26912;54.292;18.574;2022-07-29T05:30:27;26.60;54.20
41178;DHT22;26912;54.292;18.574;2022-07-29T05:32:53;26.70;53.90
41178;DHT22;26912;54.292;18.574;2022-07-29T05:35:19;26.80;53.60
41178;DHT22;26912;54.292;18.574;2022-07-29T05:37:46;26.90;53.50
41178;DHT22;26912;54.292;18.574;2022-07-29T05:40:12;27.10;53.30
41178;DHT22;26912;54.292;18.574;2022-07-29T05:42:38;27.20;52.80
41178;DHT22;26912;54.292;18.574;2022-07-29T05:45:05;27.20;51.80
41178;DHT22;26912;54.292;18.574;2022-07-29T05:47:31;27.10;51.50
41178;DHT22;26912;54.292;18.574;2022-07-29T05:49:57;27.20;51.50
41178;DHT22;26912;54.292;18.574;2022-07-29T05:52:24;27.30;50.90
41178;DHT22;26912;54.292;18.574;2022-07-29T05:54:50;27.50;51.00
41178;DHT22;26912;54.292;18.574;2022-07-29T05:57:21;27.60;50.50
41178;DHT22;26912;54.292;18.574;2022-07-29T05:59:49;27.70;49.80
41178;DHT22;26912;54.292;18.574;2022-07-29T06:02:15;27.90;49.30
41178;DHT22;26912;54.292;18.574;2022-07-29T06:04:42;28.00;49.10
41178;DHT22;26912;54.292;18.574;2022-07-29T06:07:09;27.90;48.90
41178;DHT22;26912;54.292;18.574;2022-07-29T06:09:35;28.00;48.90
41178;DHT22;26912;54.292;18.574;2022-07-29T06:12:01;28.00;47.90
41178;DHT22;26912;54.292;18.574;2022-07-29T06:14:28;28.10;47.80
41178;DHT22;26912;54.292;18.574;2022-07-29T06:16:54;28.20;47.60
41178;DHT22;26912;54.292;18.574;2022-07-29T06:19:21;28.30;47.60
41178;DHT22;26912;54.292;18.574;2022-07-29T06:21:47;28.40;46.90
41178;DHT22;26912;54.292;18.574;2022-07-29T06:24:15;28.40;46.70
41178;DHT22;26912;54.292;18.574;2022-07-29T06:26:41;28.40;46.70
41178;DHT22;26912;54.292;18.574;2022-07-29T06:29:08;28.20;46.50
41178;DHT22;26912;54.292;18.574;2022-07-29T06:31:37;28.30;46.60
41178;DHT22;26912;54.292;18.574;2022-07-29T06:34:03;28.30;46.60
41178;DHT22;26912;54.292;18.574;2022-07-29T06:36:30;28.40;46.50
41178;DHT22;26912;54.292;18.574;2022-07-29T06:38:56;28.50;46.60
41178;DHT22;26912;54.292;18.574;2022-07-29T06:41:22;28.40;46.30
41178;DHT22;26912;54.292;18.574;2022-07-29T06:43:49;28.20;47.20
41178;DHT22;26912;54.292;18.574;2022-07-29T06:46:18;28.20;47.10
41178;DHT22;26912;54.292;18.574;2022-07-29T06:48:45;28.40;46.60
41178;DHT22;26912;54.292;18.574;2022-07-29T06:51:12;28.60;46.40
41178;DHT22;26912;54.292;18.574;2022-07-29T06:53:38;28.90;45.70
41178;DHT22;26912;54.292;18.574;2022-07-29T06:56:06;28.90;45.90
41178;DHT22;26912;54.292;18.574;2022-07-29T06:58:35;28.80;46.10
41178;DHT22;26912;54.292;18.574;2022-07-29T07:01:03;28.80;46.00
41178;DHT22;26912;54.292;18.574;2022-07-29T07:03:31;28.70;45.50
41178;DHT22;26912;54.292;18.574;2022-07-29T07:05:58;28.80;45.60
41178;DHT22;26912;54.292;18.574;2022-07-29T07:08:25;28.90;45.90
41178;DHT22;26912;54.292;18.574;2022-07-29T07:10:51;28.90;45.70
41178;DHT22;26912;54.292;18.574;2022-07-29T07:13:19;28.90;46.10
41178;DHT22;26912;54.292;18.574;2022-07-29T07:15:46;28.80;46.40
41178;DHT22;26912;54.292;18.574;2022-07-29T07:18:15;28.80;46.20
41178;DHT22;26912;54.292;18.574;2022-07-29T07:20:41;29.00;46.40
41178;DHT22;26912;54.292;18.574;2022-07-29T07:23:08;29.20;46.10
41178;DHT22;26912;54.292;18.574;2022-07-29T07:25:34;29.10;46.00
41178;DHT22;26912;54.292;18.574;2022-07-29T07:28:01;29.00;45.40
41178;DHT22;26912;54.292;18.574;2022-07-29T07:30:27;28.80;45.70
41178;DHT22;26912;54.292;18.574;2022-07-29T07:32:54;28.90;45.50
41178;DHT22;26912;54.292;18.574;2022-07-29T07:35:21;29.10;45.20
41178;DHT22;26912;54.292;18.574;2022-07-29T07:37:47;29.20;44.90
41178;DHT22;26912;54.292;18.574;2022-07-29T07:40:14;29.50;44.40
41178;DHT22;26912;54.292;18.574;2022-07-29T07:42:40;29.60;44.20
41178;DHT22;26912;54.292;18.574;2022-07-29T07:45:08;29.70;44.10
41178;DHT22;26912;54.292;18.574;2022-07-29T07:47:38;29.80;43.80
41178;DHT22;26912;54.292;18.574;2022-07-29T07:50:07;29.70;43.70
41178;DHT22;26912;54.292;18.574;2022-07-29T07:52:33;29.80;43.90
41178;DHT22;26912;54.292;18.574;2022-07-29T07:55:00;29.80;43.20
41178;DHT22;26912;54.292;18.574;2022-07-29T07:57:27;29.90;43.80
41178;DHT22;26912;54.292;18.574;2022-07-29T07:59:53;30.20;45.00
41178;DHT22;26912;54.292;18.574;2022-07-29T08:02:19;30.40;43.40
41178;DHT22;26912;54.292;18.574;2022-07-29T08:04:46;30.40;42.80
41178;DHT22;26912;54.292;18.574;2022-07-29T08:07:12;30.40;42.80
41178;DHT22;26912;54.292;18.574;2022-07-29T08:09:41;30.50;42.40
41178;DHT22;26912;54.292;18.574;2022-07-29T08:12:07;30.70;41.90
41178;DHT22;26912;54.292;18.574;2022-07-29T08:14:34;30.70;42.00
41178;DHT22;26912;54.292;18.574;2022-07-29T08:17:00;30.70;41.60
41178;DHT22;26912;54.292;18.574;2022-07-29T08:19:27;30.60;41.60
41178;DHT22;26912;54.292;18.574;2022-07-29T08:21:53;30.70;41.30
41178;DHT22;26912;54.292;18.574;2022-07-29T08:24:21;30.60;40.90
41178;DHT22;26912;54.292;18.574;2022-07-29T08:27:06;30.50;41.20
41178;DHT22;26912;54.292;18.574;2022-07-29T08:29:32;30.60;41.30
41178;DHT22;26912;54.292;18.574;2022-07-29T08:31:58;30.80;41.50
41178;DHT22;26912;54.292;18.574;2022-07-29T08:34:24;31.20;41.50
41178;DHT22;26912;54.292;18.574;2022-07-29T08:36:51;31.50;40.80
41178;DHT22;26912;54.292;18.574;2022-07-29T08:39:17;31.70;40.30
41178;DHT22;26912;54.292;18.574;2022-07-29T08:41:44;32.20;39.10
41178;DHT22;26912;54.292;18.574;2022-07-29T08:44:10;32.60;38.30
41178;DHT22;26912;54.292;18.574;2022-07-29T08:46:39;32.50;37.50
41178;DHT22;26912;54.292;18.574;2022-07-29T08:49:06;32.50;37.70
41178;DHT22;26912;54.292;18.574;2022-07-29T08:51:33;33.10;37.10
41178;DHT22;26912;54.292;18.574;2022-07-29T08:54:02;33.80;36.80
41178;DHT22;26912;54.292;18.574;2022-07-29T08:56:29;34.40;35.90
41178;DHT22;26912;54.292;18.574;2022-07-29T08:58:58;34.70;35.60
41178;DHT22;26912;54.292;18.574;2022-07-29T09:01:27;34.80;34.70
41178;DHT22;26912;54.292;18.574;2022-07-29T09:03:57;34.90;34.00
41178;DHT22;26912;54.292;18.574;2022-07-29T09:06:24;34.90;33.40
41178;DHT22;26912;54.292;18.574;2022-07-29T09:08:58;35.30;33.30
41178;DHT22;26912;54.292;18.574;2022-07-29T09:11:24;35.90;33.00
41178;DHT22;26912;54.292;18.574;2022-07-29T09:13:50;36.00;32.50
41178;DHT22;26912;54.292;18.574;2022-07-29T09:16:17;35.90;31.40
41178;DHT22;26912;54.292;18.574;2022-07-29T09:18:45;35.80;32.00
41178;DHT22;26912;54.292;18.574;2022-07-29T09:21:14;35.60;32.10
41178;DHT22;26912;54.292;18.574;2022-07-29T09:24:09;35.80;32.30
41178;DHT22;26912;54.292;18.574;2022-07-29T09:26:39;36.40;32.30
41178;DHT22;26912;54.292;18.574;2022-07-29T09:29:15;36.70;31.60
41178;DHT22;26912;54.292;18.574;2022-07-29T09:31:44;36.60;30.30
41178;DHT22;26912;54.292;18.574;2022-07-29T09:34:12;36.00;30.60
41178;DHT22;26912;54.292;18.574;2022-07-29T09:36:44;35.50;31.20
41178;DHT22;26912;54.292;18.574;2022-07-29T09:39:11;35.50;30.80
41178;DHT22;26912;54.292;18.574;2022-07-29T09:41:53;35.70;31.60
41178;DHT22;26912;54.292;18.574;2022-07-29T09:44:21;36.20;31.60
41178;DHT22;26912;54.292;18.574;2022-07-29T09:46:55;36.90;31.60
41178;DHT22;26912;54.292;18.574;2022-07-29T09:49:22;37.00;30.50
41178;DHT22;26912;54.292;18.574;2022-07-29T09:52:06;37.00;30.00
41178;DHT22;26912;54.292;18.574;2022-07-29T09:54:33;36.80;30.10
41178;DHT22;26912;54.292;18.574;2022-07-29T09:57:04;36.40;30.00
41178;DHT22;26912;54.292;18.574;2022-07-29T09:59:32;36.20;30.60
41178;DHT22;26912;54.292;18.574;2022-07-29T10:01:59;36.30;31.00
41178;DHT22;26912;54.292;18.574;2022-07-29T10:04:43;36.60;31.50
41178;DHT22;26912;54.292;18.574;2022-07-29T10:07:10;37.00;31.60
41178;DHT22;26912;54.292;18.574;2022-07-29T10:09:36;37.50;30.80
41178;DHT22;26912;54.292;18.574;2022-07-29T10:12:05;37.60;30.30
41178;DHT22;26912;54.292;18.574;2022-07-29T10:14:32;37.80;30.20
41178;DHT22;26912;54.292;18.574;2022-07-29T10:17:00;37.90;30.20
41178;DHT22;26912;54.292;18.574;2022-07-29T10:19:30;38.30;30.10
41178;DHT22;26912;54.292;18.574;2022-07-29T10:21:58;38.70;29.90
41178;DHT22;26912;54.292;18.574;2022-07-29T10:24:27;38.50;29.70
41178;DHT22;26912;54.292;18.574;2022-07-29T10:26:55;38.50;29.70
41178;DHT22;26912;54.292;18.574;2022-07-29T10:29:22;38.40;29.80
41178;DHT22;26912;54.292;18.574;2022-07-29T10:43:00;37.80;29.30
41178;DHT22;26912;54.292;18.574;2022-07-29T10:45:30;37.70;29.00
41178;DHT22;26912;54.292;18.574;2022-07-29T10:48:05;38.00;28.80
41178;DHT22;26912;54.292;18.574;2022-07-29T10:50:54;38.30;28.60
41178;DHT22;26912;54.292;18.574;2022-07-29T10:56:43;38.30;28.40
41178;DHT22;26912;54.292;18.574;2022-07-29T11:01:50;38.80;26.90
41178;DHT22;26912;54.292;18.574;2022-07-29T11:07:09;39.20;26.60
41178;DHT22;26912;54.292;18.574;2022-07-29T11:09:36;39.10;25.90
41178;DHT22;26912;54.292;18.574;2022-07-29T11:12:02;39.40;25.70
41178;DHT22;26912;54.292;18.574;2022-07-29T11:14:59;39.50;25.50
41178;DHT22;26912;54.292;18.574;2022-07-29T11:17:28;39.70;25.30
41178;DHT22;26912;54.292;18.574;2022-07-29T11:22:58;39.50;25.60
41178;DHT22;26912;54.292;18.574;2022-07-29T11:25:25;39.20;25.30
41178;DHT22;26912;54.292;18.574;2022-07-29T11:27:54;39.20;25.20
41178;DHT22;26912;54.292;18.574;2022-07-29T11:30:54;38.80;25.10
41178;DHT22;26912;54.292;18.574;2022-07-29T11:33:32;39.00;25.90
41178;DHT22;26912;54.292;18.574;2022-07-29T11:38:35;39.60;25.30
41178;DHT22;26912;54.292;18.574;2022-07-29T11:43:48;39.80;24.90
41178;DHT22;26912;54.292;18.574;2022-07-29T11:46:15;39.80;24.20
41178;DHT22;26912;54.292;18.574;2022-07-29T11:48:43;39.50;24.60
41178;DHT22;26912;54.292;18.574;2022-07-29T11:51:10;39.30;24.60
41178;DHT22;26912;54.292;18.574;2022-07-29T11:53:47;39.40;24.90
41178;DHT22;26912;54.292;18.574;2022-07-29T11:56:14;39.70;25.10
41178;DHT22;26912;54.292;18.574;2022-07-29T11:58:45;39.60;24.10
41178;DHT22;26912;54.292;18.574;2022-07-29T12:01:17;39.30;24.60
41178;DHT22;26912;54.292;18.574;2022-07-29T12:03:43;39.30;24.20
41178;DHT22;26912;54.292;18.574;2022-07-29T12:06:14;39.20;24.50
41178;DHT22;26912;54.292;18.574;2022-07-29T12:08:41;39.00;24.80
41178;DHT22;26912;54.292;18.574;2022-07-29T12:11:18;38.70;24.70
41178;DHT22;26912;54.292;18.574;2022-07-29T12:13:45;38.50;24.80
41178;DHT22;26912;54.292;18.574;2022-07-29T12:16:12;38.90;25.00
41178;DHT22;26912;54.292;18.574;2022-07-29T12:18:38;38.80;24.30
41178;DHT22;26912;54.292;18.574;2022-07-29T12:21:04;38.80;24.70
41178;DHT22;26912;54.292;18.574;2022-07-29T12:23:32;38.50;24.50
41178;DHT22;26912;54.292;18.574;2022-07-29T12:25:59;38.20;24.40
41178;DHT22;26912;54.292;18.574;2022-07-29T12:28:25;38.40;24.90
41178;DHT22;26912;54.292;18.574;2022-07-29T12:30:52;38.70;24.60
41178;DHT22;26912;54.292;18.574;2022-07-29T12:33:22;38.90;25.00
41178;DHT22;26912;54.292;18.574;2022-07-29T12:35:49;38.80;24.40
41178;DHT22;26912;54.292;18.574;2022-07-29T12:38:17;38.70;24.60
41178;DHT22;26912;54.292;18.574;2022-07-29T12:40:45;38.30;25.10
41178;DHT22;26912;54.292;18.574;2022-07-29T12:43:14;37.80;25.00
41178;DHT22;26912;54.292;18.574;2022-07-29T12:45:43;37.60;25.70
41178;DHT22;26912;54.292;18.574;2022-07-29T12:48:10;37.40;25.90
41178;DHT22;26912;54.292;18.574;2022-07-29T12:50:52;37.80;26.60
41178;DHT22;26912;54.292;18.574;2022-07-29T12:53:19;37.90;25.80
41178;DHT22;26912;54.292;18.574;2022-07-29T12:55:49;38.10;25.90
41178;DHT22;26912;54.292;18.574;2022-07-29T12:58:27;37.90;26.00
41178;DHT22;26912;54.292;18.574;2022-07-29T13:09:12;36.30;26.70
41178;DHT22;26912;54.292;18.574;2022-07-29T13:11:48;35.80;27.30
41178;DHT22;26912;54.292;18.574;2022-07-29T13:17:14;35.30;27.70
41178;DHT22;26912;54.292;18.574;2022-07-29T13:19:50;35.20;27.80
41178;DHT22;26912;54.292;18.574;2022-07-29T13:22:23;34.90;28.70
41178;DHT22;26912;54.292;18.574;2022-07-29T13:24:52;34.70;29.00
41178;DHT22;26912;54.292;18.574;2022-07-29T13:27:30;34.30;28.50
41178;DHT22;26912;54.292;18.574;2022-07-29T13:29:59;33.80;28.10
41178;DHT22;26912;54.292;18.574;2022-07-29T13:32:28;33.50;28.50
41178;DHT22;26912;54.292;18.574;2022-07-29T13:35:00;33.20;29.70
41178;DHT22;26912;54.292;18.574;2022-07-29T13:37:28;33.00;31.00
41178;DHT22;26912;54.292;18.574;2022-07-29T13:39:56;33.10;31.50
41178;DHT22;26912;54.292;18.574;2022-07-29T13:42:23;33.00;30.60
41178;DHT22;26912;54.292;18.574;2022-07-29T13:44:49;32.70;30.20
41178;DHT22;26912;54.292;18.574;2022-07-29T13:47:21;32.70;30.70
41178;DHT22;26912;54.292;18.574;2022-07-29T13:49:48;32.50;31.10
41178;DHT22;26912;54.292;18.574;2022-07-29T13:52:15;32.10;30.70
41178;DHT22;26912;54.292;18.574;2022-07-29T13:54:42;31.80;31.90
41178;DHT22;26912;54.292;18.574;2022-07-29T13:57:10;31.60;33.00
41178;DHT22;26912;54.292;18.574;2022-07-29T13:59:37;31.50;33.70
41178;DHT22;26912;54.292;18.574;2022-07-29T14:02:03;31.40;33.70
41178;DHT22;26912;54.292;18.574;2022-07-29T14:04:31;31.40;34.90
41178;DHT22;26912;54.292;18.574;2022-07-29T14:06:58;31.20;35.50
41178;DHT22;26912;54.292;18.574;2022-07-29T14:09:24;31.30;35.90
41178;DHT22;26912;54.292;18.574;2022-07-29T14:11:50;31.50;36.00
41178;DHT22;26912;54.292;18.574;2022-07-29T14:14:19;32.00;35.90
41178;DHT22;26912;54.292;18.574;2022-07-29T14:16:46;32.30;35.00
